Global Triumph — V7DU5 — position and weather

sailwx.info

Track history (hours):
 
Tides and Currents Weather Stations Pressure Air Temp Water Temp Dewpoint Dewpoint Depression Visibility Wind Speed Wind Dir Waves Ship Positions

Global Triumph

Last reported at 2017-Dec-11 03:44 UTC. Time now 2017-Dec-12 16:06 UTC.
Position N 40°45' E 029°36'.

Length 225 m; draft 6.9 m.

Type: Cargo ship. MMSI: 538001709.

Date/timePositionNaut miles runAvg speedWind from/ knotsBaromVisibWave heightAir tempDewpointWater temp
2017-Dec-11 03:44N 40°45' E 029°36'412.4
2017-Dec-11 03:24N 40°45' E 029°31'511.2
2017-Dec-11 02:57N 40°44' E 029°25'4 8.2
2017-Dec-11 02:29N 40°43' E 029°20'510.6
2017-Dec-11 02:00N 40°44' E 029°13'714.5
2017-Dec-11 01:30N 40°44' E 029°03'815.3
2017-Dec-11 01:00N 40°44' E 028°53'22212.9
2017-Dec-10 07:50N 37°55' E 025°48'718.6
2017-Dec-10 07:29N 37°48' E 025°49'1018.9
2017-Dec-10 06:55N 37°38' E 025°49'818.6
2017-Dec-10 06:31N 37°30' E 025°51'918.4
2017-Dec-10 06:00N 37°25' E 026°00'918.1
2017-Dec-10 05:31N 37°20' E 026°10'918.2
2017-Dec-10 05:00N 37°15' E 026°19'918.5
2017-Dec-10 04:30N 37°10' E 026°29'918.3
2017-Dec-10 04:00N 37°03' E 026°37'1018.9
2017-Dec-10 03:29N 36°54' E 026°41'918.7
2017-Dec-10 03:00N 36°45' E 026°44'918.5
2017-Dec-10 02:31N 36°37' E 026°47'918.7
2017-Dec-10 02:00N 36°28' E 026°51'1518.9
2017-Dec-10 01:12N 36°16' E 027°02'7718.3
2017-Dec-09 21:01N 35°10' E 027°51'017.8
2017-Dec-09 21:00N 35°09' E 027°51'  
Track history (hours):
 
Tides and Currents Weather Stations Pressure Air Temp Water Temp Dewpoint Dewpoint Depression Visibility Wind Speed Wind Dir Waves Ship Positions

Global Triumph

Last reported at 2017-Dec-11 03:44 UTC. Time now 2017-Dec-12 16:06 UTC.
Position N 40°45' E 029°36'.

Length 225 m; draft 6.9 m.

Type: Cargo ship. MMSI: 538001709.

Date/timePositionNaut miles runAvg speedWind from/ knotsBaromVisibWave heightAir tempDewpointWater temp
2017-Dec-11 03:44N 40°45' E 029°36'412.4
2017-Dec-11 03:24N 40°45' E 029°31'511.2
2017-Dec-11 02:57N 40°44' E 029°25'4 8.2
2017-Dec-11 02:29N 40°43' E 029°20'510.6
2017-Dec-11 02:00N 40°44' E 029°13'714.5
2017-Dec-11 01:30N 40°44' E 029°03'815.3
2017-Dec-11 01:00N 40°44' E 028°53'22212.9
2017-Dec-10 07:50N 37°55' E 025°48'718.6
2017-Dec-10 07:29N 37°48' E 025°49'1018.9
2017-Dec-10 06:55N 37°38' E 025°49'818.6
2017-Dec-10 06:31N 37°30' E 025°51'918.4
2017-Dec-10 06:00N 37°25' E 026°00'918.1
2017-Dec-10 05:31N 37°20' E 026°10'918.2
2017-Dec-10 05:00N 37°15' E 026°19'918.5
2017-Dec-10 04:30N 37°10' E 026°29'918.3
2017-Dec-10 04:00N 37°03' E 026°37'1018.9
2017-Dec-10 03:29N 36°54' E 026°41'918.7
2017-Dec-10 03:00N 36°45' E 026°44'918.5
2017-Dec-10 02:31N 36°37' E 026°47'918.7
2017-Dec-10 02:00N 36°28' E 026°51'1518.9
2017-Dec-10 01:12N 36°16' E 027°02'7718.3
2017-Dec-09 21:01N 35°10' E 027°51'017.8
2017-Dec-09 21:00N 35°09' E 027°51'  

Dump ship's entire track history